sensor_id;sensor_type;location;lat;lon;timestamp;pressure;altitude;pressure_sealevel;temperature;humidity
20628;BME280;10473;42.734;24.258;2022-12-18T00:01:27;92445.56;;;9.29;85.37
20628;BME280;10473;42.734;24.258;2022-12-18T00:03:55;92450.59;;;9.34;85.83
20628;BME280;10473;42.734;24.258;2022-12-18T00:06:24;92450.22;;;9.35;85.42
20628;BME280;10473;42.734;24.258;2022-12-18T00:08:53;92460.91;;;9.39;85.48
20628;BME280;10473;42.734;24.258;2022-12-18T00:11:23;92453.66;;;9.36;85.30
20628;BME280;10473;42.734;24.258;2022-12-18T00:13:54;92464.50;;;9.31;85.47
20628;BME280;10473;42.734;24.258;2022-12-18T00:16:23;92456.38;;;9.39;85.57
20628;BME280;10473;42.734;24.258;2022-12-18T00:18:53;92458.41;;;9.46;85.24
20628;BME280;10473;42.734;24.258;2022-12-18T00:21:21;92458.94;;;9.36;86.20
20628;BME280;10473;42.734;24.258;2022-12-18T00:23:49;92470.03;;;9.41;86.20
20628;BME280;10473;42.734;24.258;2022-12-18T00:26:19;92469.63;;;9.24;86.74
20628;BME280;10473;42.734;24.258;2022-12-18T00:28:51;92476.34;;;9.37;86.53
20628;BME280;10473;42.734;24.258;2022-12-18T00:31:20;92483.25;;;9.41;86.19
20628;BME280;10473;42.734;24.258;2022-12-18T00:33:48;92485.13;;;9.41;86.07
20628;BME280;10473;42.734;24.258;2022-12-18T00:36:18;92483.81;;;9.50;85.67
20628;BME280;10473;42.734;24.258;2022-12-18T00:38:47;92478.31;;;9.40;86.33
20628;BME280;10473;42.734;24.258;2022-12-18T00:41:18;92481.44;;;9.45;86.31
20628;BME280;10473;42.734;24.258;2022-12-18T00:44:01;92478.22;;;9.36;86.66
20628;BME280;10473;42.734;24.258;2022-12-18T00:46:28;92486.66;;;9.42;86.58
20628;BME280;10473;42.734;24.258;2022-12-18T00:48:56;92478.47;;;9.47;86.43
20628;BME280;10473;42.734;24.258;2022-12-18T00:51:24;92464.50;;;9.46;86.02
20628;BME280;10473;42.734;24.258;2022-12-18T00:53:53;92481.28;;;9.54;85.88
20628;BME280;10473;42.734;24.258;2022-12-18T00:56:20;92476.41;;;9.56;85.31
20628;BME280;10473;42.734;24.258;2022-12-18T00:58:48;92486.72;;;9.61;85.42
20628;BME280;10473;42.734;24.258;2022-12-18T01:01:18;92492.44;;;9.63;85.22
20628;BME280;10473;42.734;24.258;2022-12-18T01:03:45;92484.25;;;9.68;84.74
20628;BME280;10473;42.734;24.258;2022-12-18T01:06:14;92484.06;;;9.61;84.50
20628;BME280;10473;42.734;24.258;2022-12-18T01:08:42;92489.53;;;9.68;84.35
20628;BME280;10473;42.734;24.258;2022-12-18T01:11:14;92492.69;;;9.58;84.84
20628;BME280;10473;42.734;24.258;2022-12-18T01:13:43;92488.09;;;9.55;84.72
20628;BME280;10473;42.734;24.258;2022-12-18T01:16:12;92494.66;;;9.61;84.71
20628;BME280;10473;42.734;24.258;2022-12-18T01:18:41;92501.47;;;9.62;84.65
20628;BME280;10473;42.734;24.258;2022-12-18T01:21:11;92501.47;;;9.62;84.78
20628;BME280;10473;42.734;24.258;2022-12-18T01:23:39;92498.16;;;9.65;84.93
20628;BME280;10473;42.734;24.258;2022-12-18T01:26:08;92499.28;;;9.33;85.76
20628;BME280;10473;42.734;24.258;2022-12-18T01:28:36;92498.09;;;9.46;85.65
20628;BME280;10473;42.734;24.258;2022-12-18T01:31:16;92504.91;;;9.47;85.15
20628;BME280;10473;42.734;24.258;2022-12-18T01:33:48;92500.22;;;9.40;85.28
20628;BME280;10473;42.734;24.258;2022-12-18T01:36:18;92503.47;;;9.49;85.46
20628;BME280;10473;42.734;24.258;2022-12-18T01:38:47;92508.34;;;9.47;85.09
20628;BME280;10473;42.734;24.258;2022-12-18T01:41:17;92517.03;;;9.48;84.76
20628;BME280;10473;42.734;24.258;2022-12-18T01:43:48;92514.63;;;9.43;85.11
20628;BME280;10473;42.734;24.258;2022-12-18T01:46:18;92520.44;;;9.33;85.09
20628;BME280;10473;42.734;24.258;2022-12-18T01:48:50;92524.81;;;9.41;85.73
20628;BME280;10473;42.734;24.258;2022-12-18T01:51:20;92528.72;;;9.31;85.78
20628;BME280;10473;42.734;24.258;2022-12-18T01:53:49;92521.56;;;9.16;86.67
20628;BME280;10473;42.734;24.258;2022-12-18T01:56:19;92524.19;;;9.32;86.29
20628;BME280;10473;42.734;24.258;2022-12-18T01:58:54;92518.75;;;9.25;85.81
20628;BME280;10473;42.734;24.258;2022-12-18T02:01:23;92515.78;;;9.26;86.76
20628;BME280;10473;42.734;24.258;2022-12-18T02:03:53;92522.16;;;9.41;86.25
20628;BME280;10473;42.734;24.258;2022-12-18T02:06:27;92508.59;;;9.11;86.28
20628;BME280;10473;42.734;24.258;2022-12-18T02:09:06;92522.66;;;9.31;86.48
20628;BME280;10473;42.734;24.258;2022-12-18T02:11:42;92519.25;;;9.30;85.84
20628;BME280;10473;42.734;24.258;2022-12-18T02:14:25;92512.75;;;9.28;86.21
20628;BME280;10473;42.734;24.258;2022-12-18T02:16:59;92516.34;;;9.35;85.80
20628;BME280;10473;42.734;24.258;2022-12-18T02:19:46;92516.28;;;9.16;85.94
20628;BME280;10473;42.734;24.258;2022-12-18T02:22:27;92525.97;;;9.28;86.07
20628;BME280;10473;42.734;24.258;2022-12-18T02:25:05;92526.06;;;9.16;85.75
20628;BME280;10473;42.734;24.258;2022-12-18T02:27:37;92529.84;;;9.15;86.12
20628;BME280;10473;42.734;24.258;2022-12-18T02:30:07;92528.53;;;9.24;85.96
20628;BME280;10473;42.734;24.258;2022-12-18T02:32:38;92532.19;;;9.04;86.22
20628;BME280;10473;42.734;24.258;2022-12-18T02:35:12;92528.81;;;9.04;86.51
20628;BME280;10473;42.734;24.258;2022-12-18T02:37:43;92523.53;;;9.04;86.26
20628;BME280;10473;42.734;24.258;2022-12-18T02:40:14;92521.34;;;8.94;86.32
20628;BME280;10473;42.734;24.258;2022-12-18T02:42:44;92519.56;;;8.98;86.54
20628;BME280;10473;42.734;24.258;2022-12-18T02:45:17;92524.47;;;9.11;85.89
20628;BME280;10473;42.734;24.258;2022-12-18T02:47:48;92526.16;;;9.04;85.64
20628;BME280;10473;42.734;24.258;2022-12-18T02:50:21;92529.44;;;8.85;86.04
20628;BME280;10473;42.734;24.258;2022-12-18T02:53:03;92531.81;;;8.75;86.41
20628;BME280;10473;42.734;24.258;2022-12-18T02:55:42;92537.94;;;8.79;86.44
20628;BME280;10473;42.734;24.258;2022-12-18T02:58:20;92534.88;;;8.77;86.51
20628;BME280;10473;42.734;24.258;2022-12-18T03:00:58;92547.94;;;8.58;87.13
20628;BME280;10473;42.734;24.258;2022-12-18T03:03:31;92542.09;;;8.64;86.81
20628;BME280;10473;42.734;24.258;2022-12-18T03:06:05;92552.66;;;8.37;87.08
20628;BME280;10473;42.734;24.258;2022-12-18T03:08:38;92555.00;;;8.54;87.10
20628;BME280;10473;42.734;24.258;2022-12-18T03:11:09;92555.78;;;8.54;86.39
20628;BME280;10473;42.734;24.258;2022-12-18T03:13:43;92573.53;;;8.42;86.91
20628;BME280;10473;42.734;24.258;2022-12-18T03:16:16;92563.88;;;8.34;87.08
20628;BME280;10473;42.734;24.258;2022-12-18T03:18:48;92566.75;;;8.29;87.18
20628;BME280;10473;42.734;24.258;2022-12-18T03:21:20;92565.88;;;8.25;87.75
20628;BME280;10473;42.734;24.258;2022-12-18T03:23:51;92561.28;;;8.22;87.57
20628;BME280;10473;42.734;24.258;2022-12-18T03:26:25;92560.72;;;8.04;88.41
20628;BME280;10473;42.734;24.258;2022-12-18T03:29:03;92556.44;;;8.12;88.40
20628;BME280;10473;42.734;24.258;2022-12-18T03:31:37;92563.69;;;8.03;88.61
20628;BME280;10473;42.734;24.258;2022-12-18T03:34:10;92562.59;;;8.04;88.85
20628;BME280;10473;42.734;24.258;2022-12-18T03:36:44;92573.91;;;8.16;87.95
20628;BME280;10473;42.734;24.258;2022-12-18T03:39:13;92563.03;;;8.06;87.44
20628;BME280;10473;42.734;24.258;2022-12-18T03:41:48;92575.78;;;8.04;88.41
20628;BME280;10473;42.734;24.258;2022-12-18T03:44:43;92587.66;;;8.10;88.05
20628;BME280;10473;42.734;24.258;2022-12-18T03:47:23;92593.94;;;8.05;87.70
20628;BME280;10473;42.734;24.258;2022-12-18T03:49:58;92586.28;;;7.88;87.97
20628;BME280;10473;42.734;24.258;2022-12-18T03:52:37;92595.81;;;7.93;87.62
20628;BME280;10473;42.734;24.258;2022-12-18T03:55:08;92594.38;;;7.95;87.19
20628;BME280;10473;42.734;24.258;2022-12-18T03:57:37;92589.66;;;7.89;87.11
20628;BME280;10473;42.734;24.258;2022-12-18T04:00:12;92595.47;;;7.58;88.46
20628;BME280;10473;42.734;24.258;2022-12-18T04:02:43;92591.53;;;7.76;88.88
20628;BME280;10473;42.734;24.258;2022-12-18T04:05:16;92596.69;;;7.73;88.21
20628;BME280;10473;42.734;24.258;2022-12-18T04:07:46;92605.72;;;7.72;88.15
20628;BME280;10473;42.734;24.258;2022-12-18T04:10:16;92603.31;;;7.67;87.63
20628;BME280;10473;42.734;24.258;2022-12-18T04:12:44;92609.22;;;7.64;87.70
20628;BME280;10473;42.734;24.258;2022-12-18T04:15:15;92605.47;;;7.65;87.27
20628;BME280;10473;42.734;24.258;2022-12-18T04:17:47;92606.59;;;7.64;86.97
20628;BME280;10473;42.734;24.258;2022-12-18T04:20:18;92606.59;;;7.52;86.64
20628;BME280;10473;42.734;24.258;2022-12-18T04:22:47;92608.00;;;7.49;87.75
20628;BME280;10473;42.734;24.258;2022-12-18T04:25:15;92617.47;;;7.50;87.85
20628;BME280;10473;42.734;24.258;2022-12-18T04:27:54;92622.16;;;7.45;88.25
20628;BME280;10473;42.734;24.258;2022-12-18T04:30:24;92625.47;;;7.54;87.58
20628;BME280;10473;42.734;24.258;2022-12-18T04:32:51;92626.34;;;7.46;87.09
20628;BME280;10473;42.734;24.258;2022-12-18T04:35:21;92623.47;;;7.51;87.08
20628;BME280;10473;42.734;24.258;2022-12-18T04:37:49;92614.69;;;7.35;86.82
20628;BME280;10473;42.734;24.258;2022-12-18T04:40:17;92633.81;;;7.32;87.37
20628;BME280;10473;42.734;24.258;2022-12-18T04:42:46;92634.22;;;7.34;87.39
20628;BME280;10473;42.734;24.258;2022-12-18T04:45:14;92638.19;;;7.40;87.13
20628;BME280;10473;42.734;24.258;2022-12-18T04:47:43;92642.34;;;7.17;87.85
20628;BME280;10473;42.734;24.258;2022-12-18T04:50:11;92648.03;;;7.19;87.19
20628;BME280;10473;42.734;24.258;2022-12-18T04:52:39;92648.13;;;7.10;88.00
20628;BME280;10473;42.734;24.258;2022-12-18T04:55:07;92649.78;;;7.15;87.85
20628;BME280;10473;42.734;24.258;2022-12-18T04:57:34;92652.19;;;7.20;87.68
20628;BME280;10473;42.734;24.258;2022-12-18T05:00:03;92656.47;;;7.12;87.73
20628;BME280;10473;42.734;24.258;2022-12-18T05:02:31;92655.97;;;6.98;87.71
20628;BME280;10473;42.734;24.258;2022-12-18T05:05:00;92665.50;;;6.91;88.07
20628;BME280;10473;42.734;24.258;2022-12-18T05:07:28;92666.19;;;7.00;88.35
20628;BME280;10473;42.734;24.258;2022-12-18T05:09:56;92669.47;;;6.97;88.58
20628;BME280;10473;42.734;24.258;2022-12-18T05:12:23;92671.78;;;6.98;87.48
20628;BME280;10473;42.734;24.258;2022-12-18T05:14:51;92679.75;;;6.90;88.03
20628;BME280;10473;42.734;24.258;2022-12-18T05:17:19;92675.78;;;6.84;87.95
20628;BME280;10473;42.734;24.258;2022-12-18T05:19:46;92684.78;;;6.83;87.88
20628;BME280;10473;42.734;24.258;2022-12-18T05:22:16;92681.97;;;6.88;87.61
20628;BME280;10473;42.734;24.258;2022-12-18T05:24:43;92683.81;;;6.67;88.00
20628;BME280;10473;42.734;24.258;2022-12-18T05:27:11;92692.50;;;6.67;88.73
20628;BME280;10473;42.734;24.258;2022-12-18T05:29:39;92692.59;;;6.71;87.62
20628;BME280;10473;42.734;24.258;2022-12-18T05:32:06;92703.94;;;6.71;87.07
20628;BME280;10473;42.734;24.258;2022-12-18T05:34:34;92703.13;;;6.71;87.69
20628;BME280;10473;42.734;24.258;2022-12-18T05:37:02;92712.25;;;6.73;87.57
20628;BME280;10473;42.734;24.258;2022-12-18T05:39:31;92708.03;;;6.60;87.47
20628;BME280;10473;42.734;24.258;2022-12-18T05:41:59;92707.25;;;6.60;87.28
20628;BME280;10473;42.734;24.258;2022-12-18T05:44:26;92711.69;;;6.68;87.73
20628;BME280;10473;42.734;24.258;2022-12-18T05:46:54;92714.97;;;6.65;86.61
20628;BME280;10473;42.734;24.258;2022-12-18T05:49:22;92721.13;;;6.69;86.63
20628;BME280;10473;42.734;24.258;2022-12-18T05:51:49;92722.81;;;6.53;86.49
20628;BME280;10473;42.734;24.258;2022-12-18T05:54:17;92731.38;;;6.62;87.90
20628;BME280;10473;42.734;24.258;2022-12-18T05:56:46;92731.19;;;6.46;87.53
20628;BME280;10473;42.734;24.258;2022-12-18T05:59:14;92735.06;;;6.49;87.03
20628;BME280;10473;42.734;24.258;2022-12-18T06:01:41;92743.97;;;6.56;87.13
20628;BME280;10473;42.734;24.258;2022-12-18T06:04:09;92745.41;;;6.54;87.11
20628;BME280;10473;42.734;24.258;2022-12-18T06:06:37;92751.41;;;6.54;87.17
20628;BME280;10473;42.734;24.258;2022-12-18T06:09:05;92751.78;;;6.44;86.94
20628;BME280;10473;42.734;24.258;2022-12-18T06:11:36;92756.41;;;6.47;87.25
20628;BME280;10473;42.734;24.258;2022-12-18T06:14:05;92766.34;;;6.42;88.06
20628;BME280;10473;42.734;24.258;2022-12-18T06:16:33;92762.06;;;6.37;88.16
20628;BME280;10473;42.734;24.258;2022-12-18T06:19:03;92756.84;;;6.20;88.50
20628;BME280;10473;42.734;24.258;2022-12-18T06:21:32;92765.00;;;6.36;88.10
20628;BME280;10473;42.734;24.258;2022-12-18T06:24:00;92777.06;;;6.37;88.30
20628;BME280;10473;42.734;24.258;2022-12-18T06:26:28;92773.88;;;6.23;89.11
20628;BME280;10473;42.734;24.258;2022-12-18T06:28:56;92782.19;;;6.33;88.34
20628;BME280;10473;42.734;24.258;2022-12-18T06:31:26;92779.31;;;6.18;89.37
20628;BME280;10473;42.734;24.258;2022-12-18T06:33:54;92787.75;;;6.32;89.01
20628;BME280;10473;42.734;24.258;2022-12-18T06:36:21;92789.78;;;6.35;88.52
20628;BME280;10473;42.734;24.258;2022-12-18T06:38:49;92780.59;;;6.41;88.80
20628;BME280;10473;42.734;24.258;2022-12-18T06:41:19;92791.94;;;6.33;88.29
20628;BME280;10473;42.734;24.258;2022-12-18T06:43:46;92789.91;;;6.38;88.36
20628;BME280;10473;42.734;24.258;2022-12-18T06:46:14;92793.50;;;6.34;87.80
20628;BME280;10473;42.734;24.258;2022-12-18T06:48:46;92800.97;;;6.23;87.52
20628;BME280;10473;42.734;24.258;2022-12-18T06:51:16;92794.03;;;6.19;87.26
20628;BME280;10473;42.734;24.258;2022-12-18T06:53:44;92795.75;;;6.15;87.43
20628;BME280;10473;42.734;24.258;2022-12-18T06:56:12;92807.34;;;6.05;88.35
20628;BME280;10473;42.734;24.258;2022-12-18T06:58:40;92796.31;;;6.20;88.85
20628;BME280;10473;42.734;24.258;2022-12-18T07:01:09;92794.91;;;6.23;87.75
20628;BME280;10473;42.734;24.258;2022-12-18T07:03:38;92802.19;;;6.26;87.92
20628;BME280;10473;42.734;24.258;2022-12-18T07:06:13;92796.31;;;6.29;87.49
20628;BME280;10473;42.734;24.258;2022-12-18T07:08:42;92808.50;;;6.33;87.50
20628;BME280;10473;42.734;24.258;2022-12-18T07:11:10;92797.84;;;6.30;87.44
20628;BME280;10473;42.734;24.258;2022-12-18T07:13:38;92806.03;;;6.28;87.33
20628;BME280;10473;42.734;24.258;2022-12-18T07:16:07;92802.22;;;6.17;88.17
20628;BME280;10473;42.734;24.258;2022-12-18T07:18:36;92800.53;;;6.13;87.97
20628;BME280;10473;42.734;24.258;2022-12-18T07:21:04;92791.66;;;6.26;87.53
20628;BME280;10473;42.734;24.258;2022-12-18T07:23:34;92793.09;;;6.15;88.21
20628;BME280;10473;42.734;24.258;2022-12-18T07:26:03;92796.94;;;6.26;88.41
20628;BME280;10473;42.734;24.258;2022-12-18T07:28:31;92802.81;;;6.23;88.24
20628;BME280;10473;42.734;24.258;2022-12-18T07:31:02;92800.69;;;6.08;88.15
20628;BME280;10473;42.734;24.258;2022-12-18T07:33:30;92812.44;;;6.19;88.92
20628;BME280;10473;42.734;24.258;2022-12-18T07:35:58;92802.66;;;6.19;89.13
20628;BME280;10473;42.734;24.258;2022-12-18T07:38:26;92799.13;;;6.24;89.07
20628;BME280;10473;42.734;24.258;2022-12-18T07:41:00;92794.19;;;6.14;88.66
20628;BME280;10473;42.734;24.258;2022-12-18T07:43:27;92794.81;;;6.11;89.26
20628;BME280;10473;42.734;24.258;2022-12-18T07:45:55;92793.91;;;6.07;89.76
20628;BME280;10473;42.734;24.258;2022-12-18T07:48:23;92807.78;;;6.16;89.15
20628;BME280;10473;42.734;24.258;2022-12-18T07:50:50;92812.88;;;6.21;89.48
20628;BME280;10473;42.734;24.258;2022-12-18T07:53:18;92821.63;;;6.42;89.25
20628;BME280;10473;42.734;24.258;2022-12-18T07:55:46;92824.84;;;6.47;89.32
20628;BME280;10473;42.734;24.258;2022-12-18T07:58:15;92829.03;;;6.48;89.27
20628;BME280;10473;42.734;24.258;2022-12-18T08:00:43;92837.06;;;6.52;88.34
20628;BME280;10473;42.734;24.258;2022-12-18T08:03:12;92825.94;;;6.46;89.33
20628;BME280;10473;42.734;24.258;2022-12-18T08:05:39;92829.63;;;6.54;89.79
20628;BME280;10473;42.734;24.258;2022-12-18T08:08:07;92827.06;;;6.66;88.99
20628;BME280;10473;42.734;24.258;2022-12-18T08:10:35;92832.41;;;6.86;88.17
20628;BME280;10473;42.734;24.258;2022-12-18T08:13:02;92835.47;;;6.88;87.69
20628;BME280;10473;42.734;24.258;2022-12-18T08:15:31;92845.00;;;7.01;88.29
20628;BME280;10473;42.734;24.258;2022-12-18T08:17:59;92854.53;;;7.14;87.11
20628;BME280;10473;42.734;24.258;2022-12-18T08:20:27;92853.75;;;7.14;87.01
20628;BME280;10473;42.734;24.258;2022-12-18T08:22:54;92860.31;;;7.08;86.84
20628;BME280;10473;42.734;24.258;2022-12-18T08:25:24;92854.53;;;7.14;86.33
20628;BME280;10473;42.734;24.258;2022-12-18T08:27:51;92869.75;;;7.09;85.73
20628;BME280;10473;42.734;24.258;2022-12-18T08:30:20;92867.00;;;7.05;86.08
20628;BME280;10473;42.734;24.258;2022-12-18T08:32:51;92862.81;;;7.04;85.52
20628;BME280;10473;42.734;24.258;2022-12-18T08:35:20;92874.59;;;7.07;86.46
20628;BME280;10473;42.734;24.258;2022-12-18T08:37:48;92868.41;;;7.03;85.84
20628;BME280;10473;42.734;24.258;2022-12-18T08:40:15;92879.94;;;6.90;86.59
20628;BME280;10473;42.734;24.258;2022-12-18T08:42:43;92879.38;;;6.76;85.96
20628;BME280;10473;42.734;24.258;2022-12-18T08:45:29;92873.88;;;6.60;86.62
20628;BME280;10473;42.734;24.258;2022-12-18T08:47:58;92884.88;;;6.62;85.86
20628;BME280;10473;42.734;24.258;2022-12-18T08:50:27;92872.06;;;6.52;86.93
20628;BME280;10473;42.734;24.258;2022-12-18T08:52:55;92885.22;;;6.52;86.33
20628;BME280;10473;42.734;24.258;2022-12-18T08:55:22;92885.59;;;6.34;86.98
20628;BME280;10473;42.734;24.258;2022-12-18T08:57:51;92882.22;;;6.25;86.79
20628;BME280;10473;42.734;24.258;2022-12-18T09:00:19;92879.59;;;6.25;87.24
20628;BME280;10473;42.734;24.258;2022-12-18T09:02:47;92874.66;;;6.15;87.34
20628;BME280;10473;42.734;24.258;2022-12-18T09:05:16;92875.28;;;6.12;87.71
20628;BME280;10473;42.734;24.258;2022-12-18T09:07:44;92877.28;;;6.15;87.73
20628;BME280;10473;42.734;24.258;2022-12-18T09:10:12;92867.72;;;6.02;87.69
20628;BME280;10473;42.734;24.258;2022-12-18T09:12:39;92882.72;;;5.93;88.58
20628;BME280;10473;42.734;24.258;2022-12-18T09:15:18;92882.09;;;6.04;89.56
20628;BME280;10473;42.734;24.258;2022-12-18T09:17:53;92881.50;;;5.99;88.81
20628;BME280;10473;42.734;24.258;2022-12-18T09:20:23;92884.31;;;5.94;87.51
20628;BME280;10473;42.734;24.258;2022-12-18T09:22:50;92891.09;;;5.95;88.46
20628;BME280;10473;42.734;24.258;2022-12-18T09:25:18;92894.50;;;5.87;88.90
20628;BME280;10473;42.734;24.258;2022-12-18T09:27:47;92893.75;;;5.86;88.76
20628;BME280;10473;42.734;24.258;2022-12-18T09:30:15;92901.16;;;5.84;89.75
20628;BME280;10473;42.734;24.258;2022-12-18T09:32:42;92894.06;;;5.85;89.74
20628;BME280;10473;42.734;24.258;2022-12-18T09:35:10;92892.50;;;5.84;88.66
20628;BME280;10473;42.734;24.258;2022-12-18T09:37:39;92898.22;;;5.86;89.55
20628;BME280;10473;42.734;24.258;2022-12-18T09:40:13;92897.63;;;5.89;89.16
20628;BME280;10473;42.734;24.258;2022-12-18T09:42:45;92902.72;;;5.94;89.12
20628;BME280;10473;42.734;24.258;2022-12-18T09:45:16;92898.06;;;5.91;89.07
20628;BME280;10473;42.734;24.258;2022-12-18T09:47:45;92894.19;;;5.88;89.46
20628;BME280;10473;42.734;24.258;2022-12-18T09:50:23;92890.03;;;5.87;88.72
20628;BME280;10473;42.734;24.258;2022-12-18T09:53:02;92895.59;;;5.86;89.74
20628;BME280;10473;42.734;24.258;2022-12-18T09:55:35;92892.97;;;5.86;89.22
20628;BME280;10473;42.734;24.258;2022-12-18T09:58:07;92884.16;;;5.82;89.32
20628;BME280;10473;42.734;24.258;2022-12-18T10:00:43;92887.72;;;5.86;90.03
20628;BME280;10473;42.734;24.258;2022-12-18T10:03:12;92880.88;;;5.93;90.36
20628;BME280;10473;42.734;24.258;2022-12-18T10:05:46;92890.50;;;5.81;91.60
20628;BME280;10473;42.734;24.258;2022-12-18T10:08:23;92883.97;;;5.95;90.58
20628;BME280;10473;42.734;24.258;2022-12-18T10:10:57;92875.13;;;6.08;90.01
20628;BME280;10473;42.734;24.258;2022-12-18T10:13:33;92880.72;;;5.98;89.04
20628;BME280;10473;42.734;24.258;2022-12-18T10:16:11;92885.34;;;6.10;88.77
20628;BME280;10473;42.734;24.258;2022-12-18T10:19:00;92891.06;;;6.12;88.88
20628;BME280;10473;42.734;24.258;2022-12-18T10:21:33;92884.13;;;6.07;88.21
20628;BME280;10473;42.734;24.258;2022-12-18T10:24:14;92894.19;;;5.97;88.24
20628;BME280;10473;42.734;24.258;2022-12-18T10:26:44;92879.03;;;5.94;87.91
20628;BME280;10473;42.734;24.258;2022-12-18T10:29:13;92885.81;;;5.78;87.77
20628;BME280;10473;42.734;24.258;2022-12-18T10:31:42;92889.84;;;5.75;89.43
20628;BME280;10473;42.734;24.258;2022-12-18T10:34:16;92886.47;;;5.75;89.43
20628;BME280;10473;42.734;24.258;2022-12-18T10:36:44;92882.44;;;5.86;88.67
20628;BME280;10473;42.734;24.258;2022-12-18T10:39:19;92883.66;;;5.80;89.23
20628;BME280;10473;42.734;24.258;2022-12-18T10:41:51;92891.72;;;5.92;88.79
20628;BME280;10473;42.734;24.258;2022-12-18T10:44:21;92881.66;;;5.94;89.32
20628;BME280;10473;42.734;24.258;2022-12-18T10:46:50;92886.16;;;5.85;88.63
20628;BME280;10473;42.734;24.258;2022-12-18T10:49:23;92885.69;;;5.91;89.16
20628;BME280;10473;42.734;24.258;2022-12-18T10:52:05;92890.00;;;5.79;88.51
20628;BME280;10473;42.734;24.258;2022-12-18T10:54:35;92889.56;;;5.85;88.34
20628;BME280;10473;42.734;24.258;2022-12-18T10:57:19;92882.91;;;5.71;89.07
20628;BME280;10473;42.734;24.258;2022-12-18T10:59:58;92885.06;;;5.77;89.05
20628;BME280;10473;42.734;24.258;2022-12-18T11:02:28;92886.59;;;5.78;90.15
20628;BME280;10473;42.734;24.258;2022-12-18T11:05:01;92884.16;;;5.82;89.50
20628;BME280;10473;42.734;24.258;2022-12-18T11:07:47;92880.56;;;5.78;88.50
20628;BME280;10473;42.734;24.258;2022-12-18T11:10:18;92891.88;;;5.87;88.60
20628;BME280;10473;42.734;24.258;2022-12-18T11:12:46;92888.16;;;5.88;87.81
20628;BME280;10473;42.734;24.258;2022-12-18T11:15:16;92896.34;;;5.95;89.05
20628;BME280;10473;42.734;24.258;2022-12-18T11:17:48;92888.13;;;5.79;88.48
20628;BME280;10473;42.734;24.258;2022-12-18T11:20:23;92891.56;;;5.88;88.10
20628;BME280;10473;42.734;24.258;2022-12-18T11:22:56;92885.19;;;5.98;88.60
20628;BME280;10473;42.734;24.258;2022-12-18T11:25:29;92877.63;;;5.88;88.74
20628;BME280;10473;42.734;24.258;2022-12-18T11:28:00;92882.28;;;5.91;87.90
20628;BME280;10473;42.734;24.258;2022-12-18T11:30:30;92879.78;;;5.94;88.25
20628;BME280;10473;42.734;24.258;2022-12-18T11:33:04;92880.09;;;5.93;87.09
20628;BME280;10473;42.734;24.258;2022-12-18T11:35:39;92879.22;;;5.89;87.28
20628;BME280;10473;42.734;24.258;2022-12-18T11:38:17;92887.72;;;5.86;87.06
20628;BME280;10473;42.734;24.258;2022-12-18T11:40:53;92877.47;;;5.76;87.13
20628;BME280;10473;42.734;24.258;2022-12-18T11:43:27;92896.53;;;5.81;87.20
20628;BME280;10473;42.734;24.258;2022-12-18T11:46:01;92898.06;;;5.82;88.33
20628;BME280;10473;42.734;24.258;2022-12-18T11:48:36;92894.78;;;5.77;87.87
20628;BME280;10473;42.734;24.258;2022-12-18T11:51:11;92892.19;;;5.85;87.91
20628;BME280;10473;42.734;24.258;2022-12-18T11:53:46;92896.34;;;5.78;87.94
20628;BME280;10473;42.734;24.258;2022-12-18T11:56:29;92901.47;;;5.83;88.80
20628;BME280;10473;42.734;24.258;2022-12-18T11:59:07;92891.44;;;5.85;89.33
20628;BME280;10473;42.734;24.258;2022-12-18T12:01:46;92890.94;;;5.83;88.76
20628;BME280;10473;42.734;24.258;2022-12-18T12:04:31;92903.59;;;5.98;88.23
20628;BME280;10473;42.734;24.258;2022-12-18T12:07:13;92897.28;;;5.99;88.20
20628;BME280;10473;42.734;24.258;2022-12-18T12:09:49;92902.22;;;5.92;89.11
20628;BME280;10473;42.734;24.258;2022-12-18T12:12:31;92891.38;;;6.02;88.67
20628;BME280;10473;42.734;24.258;2022-12-18T12:15:19;92891.38;;;6.02;88.24
20628;BME280;10473;42.734;24.258;2022-12-18T12:17:55;92896.34;;;5.95;88.03
20628;BME280;10473;42.734;24.258;2022-12-18T12:20:40;92890.16;;;5.99;87.83
20628;BME280;10473;42.734;24.258;2022-12-18T12:23:17;92897.13;;;5.87;87.68
20628;BME280;10473;42.734;24.258;2022-12-18T12:25:50;92889.56;;;5.94;89.56
20628;BME280;10473;42.734;24.258;2022-12-18T12:28:34;92893.59;;;5.91;89.69
20628;BME280;10473;42.734;24.258;2022-12-18T12:31:10;92896.97;;;5.92;89.13
20628;BME280;10473;42.734;24.258;2022-12-18T12:33:50;92902.06;;;5.97;88.16
20628;BME280;10473;42.734;24.258;2022-12-18T12:36:26;92905.63;;;6.01;87.35
20628;BME280;10473;42.734;24.258;2022-12-18T12:39:01;92901.91;;;6.02;86.92
20628;BME280;10473;42.734;24.258;2022-12-18T12:41:33;92900.81;;;6.03;86.82
20628;BME280;10473;42.734;24.258;2022-12-18T12:44:25;92904.38;;;6.07;87.04
20628;BME280;10473;42.734;24.258;2022-12-18T12:47:00;92909.63;;;6.07;86.98
20628;BME280;10473;42.734;24.258;2022-12-18T12:49:32;92910.88;;;6.01;87.59
20628;BME280;10473;42.734;24.258;2022-12-18T12:52:04;92916.44;;;6.08;87.18
20628;BME280;10473;42.734;24.258;2022-12-18T12:54:34;92914.13;;;5.98;87.15
20628;BME280;10473;42.734;24.258;2022-12-18T12:57:07;92915.53;;;6.04;87.95
20628;BME280;10473;42.734;24.258;2022-12-18T12:59:47;92915.69;;;6.07;87.17
20628;BME280;10473;42.734;24.258;2022-12-18T13:02:21;92922.34;;;5.96;88.23
20628;BME280;10473;42.734;24.258;2022-12-18T13:04:53;92922.78;;;6.07;88.31
20628;BME280;10473;42.734;24.258;2022-12-18T13:07:27;92918.75;;;6.18;87.74
20628;BME280;10473;42.734;24.258;2022-12-18T13:10:24;92921.03;;;6.28;87.48
20628;BME280;10473;42.734;24.258;2022-12-18T13:12:54;92925.06;;;6.34;87.35
20628;BME280;10473;42.734;24.258;2022-12-18T13:15:30;92934.03;;;6.33;86.69
20628;BME280;10473;42.734;24.258;2022-12-18T13:18:19;92941.31;;;6.36;85.42
20628;BME280;10473;42.734;24.258;2022-12-18T13:20:50;92946.75;;;6.31;85.56
20628;BME280;10473;42.734;24.258;2022-12-18T13:23:42;92950.94;;;6.23;85.70